sensor_id;sensor_type;location;lat;lon;timestamp;P1;durP1;ratioP1;P2;durP2;ratioP2
52318;SDS011;38258;51.148;14.068;2024-03-08T00:00:08;29.30;;;13.65;;
52318;SDS011;38258;51.148;14.068;2024-03-08T00:02:37;30.98;;;13.38;;
52318;SDS011;38258;51.148;14.068;2024-03-08T00:05:05;28.20;;;13.57;;
52318;SDS011;38258;51.148;14.068;2024-03-08T00:07:33;31.17;;;14.10;;
52318;SDS011;38258;51.148;14.068;2024-03-08T00:10:02;34.97;;;14.52;;
52318;SDS011;38258;51.148;14.068;2024-03-08T00:12:29;34.90;;;14.07;;
52318;SDS011;38258;51.148;14.068;2024-03-08T00:14:56;29.98;;;13.85;;
52318;SDS011;38258;51.148;14.068;2024-03-08T00:17:24;32.00;;;14.13;;
52318;SDS011;38258;51.148;14.068;2024-03-08T00:19:50;28.52;;;13.27;;
52318;SDS011;38258;51.148;14.068;2024-03-08T00:22:17;32.45;;;14.10;;
52318;SDS011;38258;51.148;14.068;2024-03-08T00:24:44;36.38;;;14.40;;
52318;SDS011;38258;51.148;14.068;2024-03-08T00:27:12;32.05;;;13.43;;
52318;SDS011;38258;51.148;14.068;2024-03-08T00:29:40;35.50;;;14.25;;
52318;SDS011;38258;51.148;14.068;2024-03-08T00:32:07;31.20;;;13.38;;
52318;SDS011;38258;51.148;14.068;2024-03-08T00:34:35;29.38;;;13.02;;
52318;SDS011;38258;51.148;14.068;2024-03-08T00:37:02;35.20;;;14.35;;
52318;SDS011;38258;51.148;14.068;2024-03-08T00:39:29;32.85;;;13.35;;
52318;SDS011;38258;51.148;14.068;2024-03-08T00:41:56;35.35;;;14.80;;
52318;SDS011;38258;51.148;14.068;2024-03-08T00:44:24;30.40;;;13.52;;
52318;SDS011;38258;51.148;14.068;2024-03-08T00:46:51;35.97;;;13.30;;
52318;SDS011;38258;51.148;14.068;2024-03-08T00:49:17;32.45;;;13.30;;
52318;SDS011;38258;51.148;14.068;2024-03-08T00:51:45;31.13;;;13.65;;
52318;SDS011;38258;51.148;14.068;2024-03-08T00:54:11;38.83;;;15.15;;
52318;SDS011;38258;51.148;14.068;2024-03-08T00:56:38;34.63;;;14.85;;
52318;SDS011;38258;51.148;14.068;2024-03-08T00:59:06;33.25;;;13.95;;
52318;SDS011;38258;51.148;14.068;2024-03-08T01:01:34;38.95;;;15.00;;
52318;SDS011;38258;51.148;14.068;2024-03-08T01:04:01;33.22;;;14.00;;
52318;SDS011;38258;51.148;14.068;2024-03-08T01:06:28;36.92;;;14.85;;
52318;SDS011;38258;51.148;14.068;2024-03-08T01:08:54;34.22;;;14.23;;
52318;SDS011;38258;51.148;14.068;2024-03-08T01:11:21;31.83;;;14.15;;
52318;SDS011;38258;51.148;14.068;2024-03-08T01:13:48;32.20;;;13.75;;
52318;SDS011;38258;51.148;14.068;2024-03-08T01:16:14;41.80;;;16.02;;
52318;SDS011;38258;51.148;14.068;2024-03-08T01:18:43;33.30;;;14.57;;
52318;SDS011;38258;51.148;14.068;2024-03-08T01:21:10;39.15;;;15.95;;
52318;SDS011;38258;51.148;14.068;2024-03-08T01:23:36;37.38;;;14.65;;
52318;SDS011;38258;51.148;14.068;2024-03-08T01:26:03;29.65;;;14.20;;
52318;SDS011;38258;51.148;14.068;2024-03-08T01:28:30;37.28;;;15.13;;
52318;SDS011;38258;51.148;14.068;2024-03-08T01:30:59;34.00;;;13.93;;
52318;SDS011;38258;51.148;14.068;2024-03-08T01:33:26;36.47;;;16.38;;
52318;SDS011;38258;51.148;14.068;2024-03-08T01:35:54;36.40;;;14.90;;
52318;SDS011;38258;51.148;14.068;2024-03-08T01:38:22;36.35;;;15.32;;
52318;SDS011;38258;51.148;14.068;2024-03-08T01:40:49;34.10;;;14.63;;
52318;SDS011;38258;51.148;14.068;2024-03-08T01:43:17;37.83;;;14.70;;
52318;SDS011;38258;51.148;14.068;2024-03-08T01:45:45;40.20;;;15.38;;
52318;SDS011;38258;51.148;14.068;2024-03-08T01:48:11;44.33;;;15.65;;
52318;SDS011;38258;51.148;14.068;2024-03-08T01:50:40;36.72;;;14.60;;
52318;SDS011;38258;51.148;14.068;2024-03-08T01:53:08;38.38;;;14.85;;
52318;SDS011;38258;51.148;14.068;2024-03-08T01:55:37;39.92;;;14.88;;
52318;SDS011;38258;51.148;14.068;2024-03-08T01:58:05;43.60;;;16.05;;
52318;SDS011;38258;51.148;14.068;2024-03-08T02:00:33;35.92;;;15.00;;
52318;SDS011;38258;51.148;14.068;2024-03-08T02:03:02;38.33;;;15.30;;
52318;SDS011;38258;51.148;14.068;2024-03-08T02:05:29;42.85;;;16.23;;
52318;SDS011;38258;51.148;14.068;2024-03-08T02:07:56;38.70;;;16.58;;
52318;SDS011;38258;51.148;14.068;2024-03-08T02:10:24;40.53;;;16.30;;
52318;SDS011;38258;51.148;14.068;2024-03-08T02:12:51;40.38;;;15.68;;
52318;SDS011;38258;51.148;14.068;2024-03-08T02:15:18;38.42;;;14.55;;
52318;SDS011;38258;51.148;14.068;2024-03-08T02:17:44;40.90;;;15.20;;
52318;SDS011;38258;51.148;14.068;2024-03-08T02:20:11;41.90;;;17.50;;
52318;SDS011;38258;51.148;14.068;2024-03-08T02:22:39;41.33;;;16.45;;
52318;SDS011;38258;51.148;14.068;2024-03-08T02:25:07;44.08;;;16.20;;
52318;SDS011;38258;51.148;14.068;2024-03-08T02:27:34;44.40;;;17.20;;
52318;SDS011;38258;51.148;14.068;2024-03-08T02:30:01;41.28;;;16.33;;
52318;SDS011;38258;51.148;14.068;2024-03-08T02:32:28;40.58;;;15.45;;
52318;SDS011;38258;51.148;14.068;2024-03-08T02:34:57;40.90;;;15.80;;
52318;SDS011;38258;51.148;14.068;2024-03-08T02:37:25;39.13;;;16.15;;
52318;SDS011;38258;51.148;14.068;2024-03-08T02:39:55;39.42;;;16.17;;
52318;SDS011;38258;51.148;14.068;2024-03-08T02:42:22;41.20;;;16.17;;
52318;SDS011;38258;51.148;14.068;2024-03-08T02:44:49;42.28;;;16.52;;
52318;SDS011;38258;51.148;14.068;2024-03-08T02:47:16;42.25;;;16.13;;
52318;SDS011;38258;51.148;14.068;2024-03-08T02:49:42;38.90;;;15.73;;
52318;SDS011;38258;51.148;14.068;2024-03-08T02:52:09;43.30;;;16.65;;
52318;SDS011;38258;51.148;14.068;2024-03-08T02:54:36;41.47;;;17.25;;
52318;SDS011;38258;51.148;14.068;2024-03-08T02:57:04;38.80;;;15.93;;
52318;SDS011;38258;51.148;14.068;2024-03-08T02:59:32;45.28;;;16.88;;
52318;SDS011;38258;51.148;14.068;2024-03-08T03:01:59;41.90;;;16.00;;
52318;SDS011;38258;51.148;14.068;2024-03-08T03:04:26;37.38;;;15.65;;
52318;SDS011;38258;51.148;14.068;2024-03-08T03:06:54;36.58;;;16.33;;
52318;SDS011;38258;51.148;14.068;2024-03-08T03:09:20;38.65;;;16.17;;
52318;SDS011;38258;51.148;14.068;2024-03-08T03:11:52;41.70;;;15.55;;
52318;SDS011;38258;51.148;14.068;2024-03-08T03:14:21;43.38;;;16.52;;
52318;SDS011;38258;51.148;14.068;2024-03-08T03:16:48;42.95;;;16.98;;
52318;SDS011;38258;51.148;14.068;2024-03-08T03:19:15;38.28;;;16.02;;
52318;SDS011;38258;51.148;14.068;2024-03-08T03:21:42;41.30;;;17.38;;
52318;SDS011;38258;51.148;14.068;2024-03-08T03:24:09;40.45;;;17.05;;
52318;SDS011;38258;51.148;14.068;2024-03-08T03:26:36;42.90;;;16.35;;
52318;SDS011;38258;51.148;14.068;2024-03-08T03:29:04;42.95;;;16.30;;
52318;SDS011;38258;51.148;14.068;2024-03-08T03:31:32;46.33;;;17.48;;
52318;SDS011;38258;51.148;14.068;2024-03-08T03:33:59;42.63;;;17.40;;
52318;SDS011;38258;51.148;14.068;2024-03-08T03:36:28;46.65;;;17.08;;
52318;SDS011;38258;51.148;14.068;2024-03-08T03:38:55;40.90;;;16.50;;
52318;SDS011;38258;51.148;14.068;2024-03-08T03:41:30;46.60;;;16.73;;
52318;SDS011;38258;51.148;14.068;2024-03-08T03:43:56;45.38;;;18.38;;
52318;SDS011;38258;51.148;14.068;2024-03-08T03:46:24;45.90;;;18.13;;
52318;SDS011;38258;51.148;14.068;2024-03-08T03:48:53;44.63;;;18.58;;
52318;SDS011;38258;51.148;14.068;2024-03-08T03:51:20;45.17;;;16.80;;
52318;SDS011;38258;51.148;14.068;2024-03-08T03:53:47;45.75;;;17.63;;
52318;SDS011;38258;51.148;14.068;2024-03-08T03:56:14;46.00;;;16.70;;
52318;SDS011;38258;51.148;14.068;2024-03-08T03:58:41;45.03;;;16.23;;
52318;SDS011;38258;51.148;14.068;2024-03-08T04:01:07;43.97;;;16.67;;
52318;SDS011;38258;51.148;14.068;2024-03-08T04:03:35;47.72;;;17.95;;
52318;SDS011;38258;51.148;14.068;2024-03-08T04:06:03;46.42;;;18.02;;
52318;SDS011;38258;51.148;14.068;2024-03-08T04:08:31;44.83;;;18.73;;
52318;SDS011;38258;51.148;14.068;2024-03-08T04:10:59;44.92;;;17.85;;
52318;SDS011;38258;51.148;14.068;2024-03-08T04:13:26;47.67;;;17.55;;
52318;SDS011;38258;51.148;14.068;2024-03-08T04:15:53;46.55;;;17.40;;
52318;SDS011;38258;51.148;14.068;2024-03-08T04:18:20;44.95;;;18.48;;
52318;SDS011;38258;51.148;14.068;2024-03-08T04:20:47;47.97;;;17.88;;
52318;SDS011;38258;51.148;14.068;2024-03-08T04:23:15;45.33;;;18.17;;
52318;SDS011;38258;51.148;14.068;2024-03-08T04:25:43;47.05;;;17.67;;
52318;SDS011;38258;51.148;14.068;2024-03-08T04:28:09;44.80;;;17.95;;
52318;SDS011;38258;51.148;14.068;2024-03-08T04:30:37;44.33;;;17.67;;
52318;SDS011;38258;51.148;14.068;2024-03-08T04:33:04;47.72;;;17.50;;
52318;SDS011;38258;51.148;14.068;2024-03-08T04:35:31;46.38;;;16.92;;
52318;SDS011;38258;51.148;14.068;2024-03-08T04:37:58;42.17;;;16.17;;
52318;SDS011;38258;51.148;14.068;2024-03-08T04:40:26;42.33;;;17.35;;
52318;SDS011;38258;51.148;14.068;2024-03-08T04:42:53;50.25;;;18.48;;
52318;SDS011;38258;51.148;14.068;2024-03-08T04:45:20;44.38;;;17.05;;
52318;SDS011;38258;51.148;14.068;2024-03-08T04:47:47;47.17;;;18.05;;
52318;SDS011;38258;51.148;14.068;2024-03-08T04:50:14;44.20;;;16.50;;
52318;SDS011;38258;51.148;14.068;2024-03-08T04:52:41;47.58;;;17.92;;
52318;SDS011;38258;51.148;14.068;2024-03-08T04:55:08;45.85;;;16.98;;
52318;SDS011;38258;51.148;14.068;2024-03-08T04:57:36;46.97;;;17.67;;
52318;SDS011;38258;51.148;14.068;2024-03-08T05:00:03;48.95;;;18.30;;
52318;SDS011;38258;51.148;14.068;2024-03-08T05:02:36;45.70;;;18.42;;
52318;SDS011;38258;51.148;14.068;2024-03-08T05:05:04;48.60;;;17.73;;
52318;SDS011;38258;51.148;14.068;2024-03-08T05:07:32;46.08;;;17.13;;
52318;SDS011;38258;51.148;14.068;2024-03-08T05:09:59;41.20;;;16.42;;
52318;SDS011;38258;51.148;14.068;2024-03-08T05:12:25;46.80;;;17.85;;
52318;SDS011;38258;51.148;14.068;2024-03-08T05:14:53;48.00;;;17.48;;
52318;SDS011;38258;51.148;14.068;2024-03-08T05:17:20;45.22;;;17.70;;
52318;SDS011;38258;51.148;14.068;2024-03-08T05:19:49;49.60;;;19.23;;
52318;SDS011;38258;51.148;14.068;2024-03-08T05:22:15;47.33;;;18.80;;
52318;SDS011;38258;51.148;14.068;2024-03-08T05:24:42;45.80;;;18.13;;
52318;SDS011;38258;51.148;14.068;2024-03-08T05:27:09;47.40;;;19.02;;
52318;SDS011;38258;51.148;14.068;2024-03-08T05:29:36;51.10;;;19.17;;
52318;SDS011;38258;51.148;14.068;2024-03-08T05:32:04;50.95;;;20.13;;
52318;SDS011;38258;51.148;14.068;2024-03-08T05:34:32;50.22;;;19.33;;
52318;SDS011;38258;51.148;14.068;2024-03-08T05:37:00;42.47;;;17.35;;
52318;SDS011;38258;51.148;14.068;2024-03-08T05:39:27;44.35;;;17.27;;
52318;SDS011;38258;51.148;14.068;2024-03-08T05:41:54;38.78;;;16.73;;
52318;SDS011;38258;51.148;14.068;2024-03-08T05:44:21;45.72;;;18.38;;
52318;SDS011;38258;51.148;14.068;2024-03-08T05:46:48;44.80;;;18.80;;
52318;SDS011;38258;51.148;14.068;2024-03-08T05:49:17;49.42;;;19.02;;
52318;SDS011;38258;51.148;14.068;2024-03-08T05:51:43;48.05;;;19.73;;
52318;SDS011;38258;51.148;14.068;2024-03-08T05:54:12;48.85;;;19.25;;
52318;SDS011;38258;51.148;14.068;2024-03-08T05:56:39;46.00;;;18.63;;
52318;SDS011;38258;51.148;14.068;2024-03-08T05:59:07;51.03;;;19.73;;
52318;SDS011;38258;51.148;14.068;2024-03-08T06:01:34;49.17;;;20.30;;
52318;SDS011;38258;51.148;14.068;2024-03-08T06:04:01;51.83;;;19.50;;
52318;SDS011;38258;51.148;14.068;2024-03-08T06:06:30;51.20;;;19.65;;
52318;SDS011;38258;51.148;14.068;2024-03-08T06:08:57;48.63;;;18.45;;
52318;SDS011;38258;51.148;14.068;2024-03-08T06:11:24;45.30;;;19.15;;
52318;SDS011;38258;51.148;14.068;2024-03-08T06:13:52;50.35;;;18.30;;
52318;SDS011;38258;51.148;14.068;2024-03-08T06:16:25;53.15;;;17.52;;
52318;SDS011;38258;51.148;14.068;2024-03-08T06:18:54;52.58;;;19.15;;
52318;SDS011;38258;51.148;14.068;2024-03-08T06:21:22;46.88;;;18.42;;
52318;SDS011;38258;51.148;14.068;2024-03-08T06:23:53;45.80;;;17.92;;
52318;SDS011;38258;51.148;14.068;2024-03-08T06:26:22;43.33;;;17.02;;
52318;SDS011;38258;51.148;14.068;2024-03-08T06:28:49;48.90;;;18.73;;
52318;SDS011;38258;51.148;14.068;2024-03-08T06:31:17;56.88;;;20.60;;
52318;SDS011;38258;51.148;14.068;2024-03-08T06:33:45;50.47;;;19.25;;
52318;SDS011;38258;51.148;14.068;2024-03-08T06:36:11;50.22;;;20.92;;
52318;SDS011;38258;51.148;14.068;2024-03-08T06:38:38;49.60;;;20.25;;
52318;SDS011;38258;51.148;14.068;2024-03-08T06:41:09;51.60;;;19.50;;
52318;SDS011;38258;51.148;14.068;2024-03-08T06:43:40;48.35;;;18.13;;
52318;SDS011;38258;51.148;14.068;2024-03-08T06:46:07;51.17;;;20.33;;
52318;SDS011;38258;51.148;14.068;2024-03-08T06:48:34;43.33;;;18.83;;
52318;SDS011;38258;51.148;14.068;2024-03-08T06:51:02;52.75;;;20.05;;
52318;SDS011;38258;51.148;14.068;2024-03-08T06:53:30;55.45;;;20.98;;
52318;SDS011;38258;51.148;14.068;2024-03-08T06:55:57;49.47;;;19.33;;
52318;SDS011;38258;51.148;14.068;2024-03-08T06:58:25;47.50;;;18.27;;
52318;SDS011;38258;51.148;14.068;2024-03-08T07:00:52;45.33;;;18.10;;
52318;SDS011;38258;51.148;14.068;2024-03-08T07:03:23;51.00;;;19.13;;
52318;SDS011;38258;51.148;14.068;2024-03-08T07:05:51;50.40;;;18.75;;
52318;SDS011;38258;51.148;14.068;2024-03-08T07:08:18;47.92;;;17.45;;
52318;SDS011;38258;51.148;14.068;2024-03-08T07:10:47;45.50;;;18.23;;
52318;SDS011;38258;51.148;14.068;2024-03-08T07:13:14;46.45;;;18.35;;
52318;SDS011;38258;51.148;14.068;2024-03-08T07:15:43;45.50;;;17.70;;
52318;SDS011;38258;51.148;14.068;2024-03-08T07:18:10;42.42;;;17.60;;
52318;SDS011;38258;51.148;14.068;2024-03-08T07:20:39;43.40;;;17.48;;
52318;SDS011;38258;51.148;14.068;2024-03-08T07:23:07;48.08;;;18.35;;
52318;SDS011;38258;51.148;14.068;2024-03-08T07:25:35;45.15;;;18.30;;
52318;SDS011;38258;51.148;14.068;2024-03-08T07:28:04;41.85;;;17.08;;
52318;SDS011;38258;51.148;14.068;2024-03-08T07:30:31;43.42;;;17.65;;
52318;SDS011;38258;51.148;14.068;2024-03-08T07:33:22;42.78;;;16.77;;
52318;SDS011;38258;51.148;14.068;2024-03-08T07:35:49;39.33;;;16.52;;
52318;SDS011;38258;51.148;14.068;2024-03-08T07:38:15;42.08;;;16.92;;
52318;SDS011;38258;51.148;14.068;2024-03-08T07:40:42;42.00;;;17.35;;
52318;SDS011;38258;51.148;14.068;2024-03-08T07:43:10;41.38;;;17.00;;
52318;SDS011;38258;51.148;14.068;2024-03-08T07:45:37;36.17;;;16.23;;
52318;SDS011;38258;51.148;14.068;2024-03-08T07:48:04;41.30;;;16.33;;
52318;SDS011;38258;51.148;14.068;2024-03-08T07:50:37;37.35;;;16.13;;
52318;SDS011;38258;51.148;14.068;2024-03-08T07:53:04;40.25;;;16.73;;
52318;SDS011;38258;51.148;14.068;2024-03-08T07:55:31;39.13;;;16.60;;
52318;SDS011;38258;51.148;14.068;2024-03-08T07:57:58;38.72;;;17.38;;
52318;SDS011;38258;51.148;14.068;2024-03-08T08:00:25;33.38;;;15.60;;
52318;SDS011;38258;51.148;14.068;2024-03-08T08:02:52;40.58;;;16.85;;
52318;SDS011;38258;51.148;14.068;2024-03-08T08:05:19;39.65;;;17.17;;
52318;SDS011;38258;51.148;14.068;2024-03-08T08:07:47;39.92;;;17.02;;
52318;SDS011;38258;51.148;14.068;2024-03-08T08:10:15;35.80;;;16.42;;
52318;SDS011;38258;51.148;14.068;2024-03-08T08:12:43;42.95;;;16.75;;
52318;SDS011;38258;51.148;14.068;2024-03-08T08:15:11;40.90;;;17.77;;
52318;SDS011;38258;51.148;14.068;2024-03-08T08:17:38;37.92;;;16.70;;
52318;SDS011;38258;51.148;14.068;2024-03-08T08:20:05;36.15;;;15.93;;
52318;SDS011;38258;51.148;14.068;2024-03-08T08:22:32;34.58;;;15.32;;
52318;SDS011;38258;51.148;14.068;2024-03-08T08:25:00;37.47;;;16.55;;
52318;SDS011;38258;51.148;14.068;2024-03-08T08:27:27;34.08;;;16.20;;
52318;SDS011;38258;51.148;14.068;2024-03-08T08:29:54;30.45;;;15.32;;
52318;SDS011;38258;51.148;14.068;2024-03-08T08:32:21;30.70;;;15.05;;
52318;SDS011;38258;51.148;14.068;2024-03-08T08:34:47;33.65;;;15.43;;
52318;SDS011;38258;51.148;14.068;2024-03-08T08:37:14;36.75;;;16.63;;
52318;SDS011;38258;51.148;14.068;2024-03-08T08:39:41;35.53;;;16.35;;
52318;SDS011;38258;51.148;14.068;2024-03-08T08:42:09;32.78;;;16.45;;
52318;SDS011;38258;51.148;14.068;2024-03-08T08:44:36;32.45;;;15.40;;
52318;SDS011;38258;51.148;14.068;2024-03-08T08:47:03;34.13;;;16.77;;
52318;SDS011;38258;51.148;14.068;2024-03-08T08:49:29;38.22;;;17.90;;
52318;SDS011;38258;51.148;14.068;2024-03-08T08:51:56;38.55;;;17.33;;
52318;SDS011;38258;51.148;14.068;2024-03-08T08:54:24;36.67;;;17.88;;
52318;SDS011;38258;51.148;14.068;2024-03-08T08:56:52;37.97;;;17.08;;
52318;SDS011;38258;51.148;14.068;2024-03-08T08:59:21;37.05;;;17.33;;
52318;SDS011;38258;51.148;14.068;2024-03-08T09:01:50;35.45;;;18.00;;
52318;SDS011;38258;51.148;14.068;2024-03-08T09:04:19;39.83;;;18.63;;
52318;SDS011;38258;51.148;14.068;2024-03-08T09:06:46;34.08;;;16.35;;
52318;SDS011;38258;51.148;14.068;2024-03-08T09:09:13;34.95;;;16.60;;
52318;SDS011;38258;51.148;14.068;2024-03-08T09:11:42;37.83;;;18.02;;
52318;SDS011;38258;51.148;14.068;2024-03-08T09:14:08;35.22;;;17.77;;
52318;SDS011;38258;51.148;14.068;2024-03-08T09:16:38;37.03;;;17.88;;
52318;SDS011;38258;51.148;14.068;2024-03-08T09:19:05;38.88;;;18.80;;
52318;SDS011;38258;51.148;14.068;2024-03-08T09:21:32;36.10;;;17.58;;
52318;SDS011;38258;51.148;14.068;2024-03-08T09:24:00;37.50;;;18.95;;
52318;SDS011;38258;51.148;14.068;2024-03-08T09:26:26;39.05;;;19.42;;
52318;SDS011;38258;51.148;14.068;2024-03-08T09:28:53;38.20;;;19.05;;
52318;SDS011;38258;51.148;14.068;2024-03-08T09:31:21;39.40;;;19.27;;
52318;SDS011;38258;51.148;14.068;2024-03-08T09:33:49;42.33;;;19.30;;
52318;SDS011;38258;51.148;14.068;2024-03-08T09:36:16;40.38;;;18.98;;
52318;SDS011;38258;51.148;14.068;2024-03-08T09:38:43;39.70;;;19.40;;
52318;SDS011;38258;51.148;14.068;2024-03-08T09:41:10;39.92;;;18.70;;
52318;SDS011;38258;51.148;14.068;2024-03-08T09:43:38;41.88;;;20.27;;
52318;SDS011;38258;51.148;14.068;2024-03-08T09:46:05;39.78;;;19.17;;
52318;SDS011;38258;51.148;14.068;2024-03-08T09:48:33;39.58;;;19.35;;
52318;SDS011;38258;51.148;14.068;2024-03-08T09:51:02;39.20;;;19.05;;
52318;SDS011;38258;51.148;14.068;2024-03-08T09:53:30;44.13;;;20.48;;
52318;SDS011;38258;51.148;14.068;2024-03-08T09:55:56;37.00;;;17.70;;
52318;SDS011;38258;51.148;14.068;2024-03-08T09:58:24;38.40;;;18.50;;
52318;SDS011;38258;51.148;14.068;2024-03-08T10:01:18;35.22;;;17.15;;
52318;SDS011;38258;51.148;14.068;2024-03-08T10:03:47;35.67;;;17.00;;
52318;SDS011;38258;51.148;14.068;2024-03-08T10:06:15;35.28;;;17.13;;
52318;SDS011;38258;51.148;14.068;2024-03-08T10:08:43;36.20;;;17.00;;
52318;SDS011;38258;51.148;14.068;2024-03-08T10:11:10;35.42;;;17.90;;
52318;SDS011;38258;51.148;14.068;2024-03-08T10:13:37;38.63;;;18.38;;
52318;SDS011;38258;51.148;14.068;2024-03-08T10:16:06;30.42;;;16.35;;
52318;SDS011;38258;51.148;14.068;2024-03-08T10:18:33;35.65;;;18.83;;
52318;SDS011;38258;51.148;14.068;2024-03-08T10:21:03;34.25;;;16.42;;
52318;SDS011;38258;51.148;14.068;2024-03-08T10:23:32;35.03;;;17.92;;
52318;SDS011;38258;51.148;14.068;2024-03-08T10:28:43;34.47;;;18.23;;
52318;SDS011;38258;51.148;14.068;2024-03-08T10:31:13;37.70;;;18.27;;
52318;SDS011;38258;51.148;14.068;2024-03-08T10:33:40;38.55;;;18.65;;
52318;SDS011;38258;51.148;14.068;2024-03-08T10:36:07;38.67;;;18.55;;
52318;SDS011;38258;51.148;14.068;2024-03-08T10:38:36;34.63;;;17.98;;
52318;SDS011;38258;51.148;14.068;2024-03-08T10:41:05;35.38;;;16.73;;
52318;SDS011;38258;51.148;14.068;2024-03-08T10:43:37;35.00;;;16.65;;
52318;SDS011;38258;51.148;14.068;2024-03-08T10:46:21;35.65;;;18.52;;
52318;SDS011;38258;51.148;14.068;2024-03-08T10:48:57;38.75;;;18.35;;
52318;SDS011;38258;51.148;14.068;2024-03-08T10:51:28;39.45;;;20.25;;
52318;SDS011;38258;51.148;14.068;2024-03-08T10:53:58;38.30;;;18.33;;
52318;SDS011;38258;51.148;14.068;2024-03-08T10:56:28;37.38;;;18.73;;
52318;SDS011;38258;51.148;14.068;2024-03-08T10:58:55;37.22;;;18.25;;
52318;SDS011;38258;51.148;14.068;2024-03-08T11:01:23;38.67;;;17.85;;
52318;SDS011;38258;51.148;14.068;2024-03-08T11:03:51;37.75;;;18.35;;
52318;SDS011;38258;51.148;14.068;2024-03-08T11:06:19;40.92;;;19.20;;
52318;SDS011;38258;51.148;14.068;2024-03-08T11:08:48;39.60;;;17.63;;
52318;SDS011;38258;51.148;14.068;2024-03-08T11:11:26;36.88;;;18.15;;
52318;SDS011;38258;51.148;14.068;2024-03-08T11:13:56;34.50;;;17.55;;
52318;SDS011;38258;51.148;14.068;2024-03-08T11:16:39;37.67;;;18.75;;
52318;SDS011;38258;51.148;14.068;2024-03-08T11:19:24;33.72;;;16.98;;
52318;SDS011;38258;51.148;14.068;2024-03-08T11:21:57;40.15;;;18.50;;
52318;SDS011;38258;51.148;14.068;2024-03-08T11:24:24;34.38;;;17.35;;
52318;SDS011;38258;51.148;14.068;2024-03-08T11:26:55;36.67;;;17.58;;
52318;SDS011;38258;51.148;14.068;2024-03-08T11:29:34;34.33;;;16.55;;
52318;SDS011;38258;51.148;14.068;2024-03-08T11:32:05;33.40;;;17.25;;
52318;SDS011;38258;51.148;14.068;2024-03-08T11:34:33;36.65;;;18.35;;
52318;SDS011;38258;51.148;14.068;2024-03-08T11:37:00;35.58;;;18.23;;
52318;SDS011;38258;51.148;14.068;2024-03-08T11:39:27;34.25;;;17.48;;
52318;SDS011;38258;51.148;14.068;2024-03-08T11:41:57;35.88;;;17.90;;
52318;SDS011;38258;51.148;14.068;2024-03-08T11:44:26;34.15;;;17.52;;
52318;SDS011;38258;51.148;14.068;2024-03-08T11:46:53;33.13;;;17.45;;
52318;SDS011;38258;51.148;14.068;2024-03-08T11:49:20;33.70;;;17.45;;
52318;SDS011;38258;51.148;14.068;2024-03-08T11:51:51;33.08;;;16.98;;
52318;SDS011;38258;51.148;14.068;2024-03-08T11:54:18;32.22;;;17.05;;
52318;SDS011;38258;51.148;14.068;2024-03-08T11:56:45;30.95;;;17.90;;
52318;SDS011;38258;51.148;14.068;2024-03-08T11:59:14;31.80;;;15.95;;
52318;SDS011;38258;51.148;14.068;2024-03-08T12:01:42;31.48;;;16.83;;
52318;SDS011;38258;51.148;14.068;2024-03-08T12:04:11;31.50;;;17.55;;
52318;SDS011;38258;51.148;14.068;2024-03-08T12:06:39;30.25;;;15.55;;
52318;SDS011;38258;51.148;14.068;2024-03-08T12:09:09;33.53;;;17.17;;
52318;SDS011;38258;51.148;14.068;2024-03-08T12:11:36;32.63;;;16.48;;
52318;SDS011;38258;51.148;14.068;2024-03-08T12:14:03;33.00;;;17.02;;
52318;SDS011;38258;51.148;14.068;2024-03-08T12:16:32;31.48;;;16.15;;
52318;SDS011;38258;51.148;14.068;2024-03-08T12:18:59;31.23;;;16.13;;
52318;SDS011;38258;51.148;14.068;2024-03-08T12:21:30;28.92;;;15.13;;
52318;SDS011;38258;51.148;14.068;2024-03-08T12:24:01;29.52;;;15.88;;
52318;SDS011;38258;51.148;14.068;2024-03-08T12:26:29;31.92;;;15.18;;
52318;SDS011;38258;51.148;14.068;2024-03-08T12:31:46;30.95;;;15.52;;
52318;SDS011;38258;51.148;14.068;2024-03-08T12:34:13;31.15;;;16.75;;
52318;SDS011;38258;51.148;14.068;2024-03-08T12:36:46;28.88;;;15.93;;
52318;SDS011;38258;51.148;14.068;2024-03-08T12:39:15;29.17;;;14.70;;
52318;SDS011;38258;51.148;14.068;2024-03-08T12:41:43;32.92;;;15.63;;
52318;SDS011;38258;51.148;14.068;2024-03-08T12:44:10;29.40;;;15.27;;
52318;SDS011;38258;51.148;14.068;2024-03-08T12:46:37;28.70;;;14.98;;
52318;SDS011;38258;51.148;14.068;2024-03-08T12:49:08;29.65;;;15.23;;
52318;SDS011;38258;51.148;14.068;2024-03-08T12:51:36;29.17;;;15.00;;
52318;SDS011;38258;51.148;14.068;2024-03-08T12:54:04;36.10;;;18.40;;
52318;SDS011;38258;51.148;14.068;2024-03-08T12:56:32;30.23;;;15.95;;
52318;SDS011;38258;51.148;14.068;2024-03-08T12:59:00;32.13;;;15.82;;
52318;SDS011;38258;51.148;14.068;2024-03-08T13:01:28;29.60;;;15.18;;
52318;SDS011;38258;51.148;14.068;2024-03-08T13:03:55;31.15;;;16.08;;
52318;SDS011;38258;51.148;14.068;2024-03-08T13:06:23;29.90;;;15.25;;
52318;SDS011;38258;51.148;14.068;2024-03-08T13:08:50;29.25;;;15.50;;
52318;SDS011;38258;51.148;14.068;2024-03-08T13:11:17;29.20;;;15.00;;
52318;SDS011;38258;51.148;14.068;2024-03-08T13:13:44;29.13;;;14.82;;
52318;SDS011;38258;51.148;14.068;2024-03-08T13:16:11;30.00;;;15.20;;
52318;SDS011;38258;51.148;14.068;2024-03-08T13:18:40;28.98;;;15.45;;
52318;SDS011;38258;51.148;14.068;2024-03-08T13:21:08;26.98;;;14.25;;
52318;SDS011;38258;51.148;14.068;2024-03-08T13:23:37;28.38;;;14.43;;
52318;SDS011;38258;51.148;14.068;2024-03-08T13:26:05;31.48;;;14.93;;
52318;SDS011;38258;51.148;14.068;2024-03-08T13:28:33;30.50;;;15.20;;
52318;SDS011;38258;51.148;14.068;2024-03-08T13:31:02;30.17;;;15.82;;
52318;SDS011;38258;51.148;14.068;2024-03-08T13:33:31;27.42;;;14.90;;
52318;SDS011;38258;51.148;14.068;2024-03-08T13:36:01;31.65;;;15.40;;
52318;SDS011;38258;51.148;14.068;2024-03-08T13:38:29;28.48;;;14.35;;
52318;SDS011;38258;51.148;14.068;2024-03-08T13:40:59;27.65;;;13.98;;
52318;SDS011;38258;51.148;14.068;2024-03-08T13:43:25;31.88;;;16.52;;
52318;SDS011;38258;51.148;14.068;2024-03-08T13:45:54;25.75;;;14.45;;
52318;SDS011;38258;51.148;14.068;2024-03-08T13:48:21;30.35;;;14.73;;
52318;SDS011;38258;51.148;14.068;2024-03-08T13:50:48;30.50;;;14.80;;
52318;SDS011;38258;51.148;14.068;2024-03-08T13:53:15;27.40;;;14.43;;
52318;SDS011;38258;51.148;14.068;2024-03-08T13:55:41;26.58;;;13.55;;
52318;SDS011;38258;51.148;14.068;2024-03-08T13:58:09;31.38;;;15.27;;
52318;SDS011;38258;51.148;14.068;2024-03-08T14:00:39;26.85;;;14.18;;
52318;SDS011;38258;51.148;14.068;2024-03-08T14:03:08;28.50;;;14.48;;
52318;SDS011;38258;51.148;14.068;2024-03-08T14:05:38;29.75;;;14.88;;
52318;SDS011;38258;51.148;14.068;2024-03-08T14:08:06;31.73;;;15.45;;
52318;SDS011;38258;51.148;14.068;2024-03-08T14:10:33;30.05;;;15.35;;
52318;SDS011;38258;51.148;14.068;2024-03-08T14:13:02;27.95;;;15.13;;
52318;SDS011;38258;51.148;14.068;2024-03-08T14:15:31;29.13;;;15.07;;
52318;SDS011;38258;51.148;14.068;2024-03-08T14:17:58;33.72;;;15.52;;